sensor_id;sensor_type;location;lat;lon;timestamp;temperature;humidity
68378;DHT22;55322;48.146;11.516;2023-03-23T00:02:14;9.75;67.42
68378;DHT22;55322;48.146;11.516;2023-03-23T00:04:39;9.87;65.67
68378;DHT22;55322;48.146;11.516;2023-03-23T00:07:07;9.95;65.75
68378;DHT22;55322;48.146;11.516;2023-03-23T00:09:33;9.90;66.34
68378;DHT22;55322;48.146;11.516;2023-03-23T00:12:00;9.98;65.80
68378;DHT22;55322;48.146;11.516;2023-03-23T00:14:31;9.94;66.71
68378;DHT22;55322;48.146;11.516;2023-03-23T00:17:09;9.85;66.46
68378;DHT22;55322;48.146;11.516;2023-03-23T00:19:37;9.84;67.50
68378;DHT22;55322;48.146;11.516;2023-03-23T00:22:12;9.84;67.63
68378;DHT22;55322;48.146;11.516;2023-03-23T00:24:37;9.88;66.62
68378;DHT22;55322;48.146;11.516;2023-03-23T00:27:03;9.97;66.91
68378;DHT22;55322;48.146;11.516;2023-03-23T00:29:28;9.85;67.70
68378;DHT22;55322;48.146;11.516;2023-03-23T00:31:53;9.84;67.33
68378;DHT22;55322;48.146;11.516;2023-03-23T00:34:24;9.87;66.50
68378;DHT22;55322;48.146;11.516;2023-03-23T00:36:52;9.83;68.00
68378;DHT22;55322;48.146;11.516;2023-03-23T00:39:27;9.81;67.11
68378;DHT22;55322;48.146;11.516;2023-03-23T00:41:54;9.84;66.61
68378;DHT22;55322;48.146;11.516;2023-03-23T00:44:26;9.85;67.18
68378;DHT22;55322;48.146;11.516;2023-03-23T00:46:51;9.88;66.77
68378;DHT22;55322;48.146;11.516;2023-03-23T00:49:20;9.85;67.27
68378;DHT22;55322;48.146;11.516;2023-03-23T00:51:53;9.85;67.12
68378;DHT22;55322;48.146;11.516;2023-03-23T00:54:19;9.83;67.72
68378;DHT22;55322;48.146;11.516;2023-03-23T00:56:45;9.83;67.73
68378;DHT22;55322;48.146;11.516;2023-03-23T00:59:10;9.77;67.95
68378;DHT22;55322;48.146;11.516;2023-03-23T01:01:36;9.77;67.48
68378;DHT22;55322;48.146;11.516;2023-03-23T01:04:02;9.80;67.16
68378;DHT22;55322;48.146;11.516;2023-03-23T01:06:30;9.77;67.57
68378;DHT22;55322;48.146;11.516;2023-03-23T01:08:57;9.73;67.44
68378;DHT22;55322;48.146;11.516;2023-03-23T01:11:23;9.75;66.63
68378;DHT22;55322;48.146;11.516;2023-03-23T01:13:49;9.78;67.53
68378;DHT22;55322;48.146;11.516;2023-03-23T01:16:14;9.73;67.67
68378;DHT22;55322;48.146;11.516;2023-03-23T01:18:40;9.73;67.65
68378;DHT22;55322;48.146;11.516;2023-03-23T01:21:11;9.74;66.89
68378;DHT22;55322;48.146;11.516;2023-03-23T01:23:38;9.67;68.05
68378;DHT22;55322;48.146;11.516;2023-03-23T01:28:30;9.65;68.27
68378;DHT22;55322;48.146;11.516;2023-03-23T01:31:07;9.73;67.31
68378;DHT22;55322;48.146;11.516;2023-03-23T01:33:33;9.65;68.24
68378;DHT22;55322;48.146;11.516;2023-03-23T01:36:05;9.64;67.67
68378;DHT22;55322;48.146;11.516;2023-03-23T01:38:31;9.61;69.66
68378;DHT22;55322;48.146;11.516;2023-03-23T01:40:57;9.53;70.37
68378;DHT22;55322;48.146;11.516;2023-03-23T01:43:22;9.46;70.69
68378;DHT22;55322;48.146;11.516;2023-03-23T01:45:47;9.37;71.19
68378;DHT22;55322;48.146;11.516;2023-03-23T01:48:17;9.39;70.39
68378;DHT22;55322;48.146;11.516;2023-03-23T01:53:17;9.36;71.21
68378;DHT22;55322;48.146;11.516;2023-03-23T01:55:43;9.27;69.97
68378;DHT22;55322;48.146;11.516;2023-03-23T01:58:13;9.13;71.77
68378;DHT22;55322;48.146;11.516;2023-03-23T02:00:39;8.99;72.17
68378;DHT22;55322;48.146;11.516;2023-03-23T02:03:05;8.85;73.44
68378;DHT22;55322;48.146;11.516;2023-03-23T02:05:37;8.76;74.06
68378;DHT22;55322;48.146;11.516;2023-03-23T02:08:04;8.67;74.45
68378;DHT22;55322;48.146;11.516;2023-03-23T02:10:31;8.64;74.66
68378;DHT22;55322;48.146;11.516;2023-03-23T02:13:02;8.64;74.39
68378;DHT22;55322;48.146;11.516;2023-03-23T02:15:43;8.64;74.22
68378;DHT22;55322;48.146;11.516;2023-03-23T02:18:26;8.68;73.19
68378;DHT22;55322;48.146;11.516;2023-03-23T02:35:03;9.29;70.80
68378;DHT22;55322;48.146;11.516;2023-03-23T02:37:36;9.26;71.21
68378;DHT22;55322;48.146;11.516;2023-03-23T02:42:38;9.32;70.53
68378;DHT22;55322;48.146;11.516;2023-03-23T02:45:07;9.30;70.63
68378;DHT22;55322;48.146;11.516;2023-03-23T02:47:35;9.32;70.38
68378;DHT22;55322;48.146;11.516;2023-03-23T02:50:02;9.32;70.77
68378;DHT22;55322;48.146;11.516;2023-03-23T02:52:30;9.30;70.79
68378;DHT22;55322;48.146;11.516;2023-03-23T02:54:57;9.29;70.44
68378;DHT22;55322;48.146;11.516;2023-03-23T02:57:24;9.32;70.46
68378;DHT22;55322;48.146;11.516;2023-03-23T02:59:51;9.36;69.59
68378;DHT22;55322;48.146;11.516;2023-03-23T03:02:36;9.33;70.26
68378;DHT22;55322;48.146;11.516;2023-03-23T03:10:54;9.18;71.28
68378;DHT22;55322;48.146;11.516;2023-03-23T03:18:59;9.23;70.15
68378;DHT22;55322;48.146;11.516;2023-03-23T03:21:29;9.30;69.58
68378;DHT22;55322;48.146;11.516;2023-03-23T03:23:57;9.29;70.57
68378;DHT22;55322;48.146;11.516;2023-03-23T03:26:26;9.26;70.26
68378;DHT22;55322;48.146;11.516;2023-03-23T03:28:54;9.22;70.77
68378;DHT22;55322;48.146;11.516;2023-03-23T03:31:24;9.09;70.81
68378;DHT22;55322;48.146;11.516;2023-03-23T03:33:51;9.13;71.16
68378;DHT22;55322;48.146;11.516;2023-03-23T03:36:19;9.12;71.31
68378;DHT22;55322;48.146;11.516;2023-03-23T03:38:47;9.15;70.83
68378;DHT22;55322;48.146;11.516;2023-03-23T03:41:14;9.08;71.93
68378;DHT22;55322;48.146;11.516;2023-03-23T03:43:39;9.09;71.89
68378;DHT22;55322;48.146;11.516;2023-03-23T03:46:05;9.13;71.82
68378;DHT22;55322;48.146;11.516;2023-03-23T03:48:30;9.26;70.69
68378;DHT22;55322;48.146;11.516;2023-03-23T03:50:55;9.26;71.09
68378;DHT22;55322;48.146;11.516;2023-03-23T03:53:22;9.27;70.43
68378;DHT22;55322;48.146;11.516;2023-03-23T03:55:48;9.22;71.01
68378;DHT22;55322;48.146;11.516;2023-03-23T03:58:15;9.30;70.35
68378;DHT22;55322;48.146;11.516;2023-03-23T04:00:41;9.27;71.16
68378;DHT22;55322;48.146;11.516;2023-03-23T04:03:07;9.33;70.64
68378;DHT22;55322;48.146;11.516;2023-03-23T04:05:32;9.34;71.49
68378;DHT22;55322;48.146;11.516;2023-03-23T04:07:58;9.42;69.79
68378;DHT22;55322;48.146;11.516;2023-03-23T04:10:26;9.39;70.39
68378;DHT22;55322;48.146;11.516;2023-03-23T04:12:57;9.33;71.26
68378;DHT22;55322;48.146;11.516;2023-03-23T04:15:22;9.33;71.18
68378;DHT22;55322;48.146;11.516;2023-03-23T04:17:48;9.36;71.19
68378;DHT22;55322;48.146;11.516;2023-03-23T04:20:15;9.32;71.71
68378;DHT22;55322;48.146;11.516;2023-03-23T04:22:44;9.32;71.29
68378;DHT22;55322;48.146;11.516;2023-03-23T04:25:12;9.34;71.18
68378;DHT22;55322;48.146;11.516;2023-03-23T04:27:39;9.33;70.61
68378;DHT22;55322;48.146;11.516;2023-03-23T04:30:08;9.32;71.83
68378;DHT22;55322;48.146;11.516;2023-03-23T04:32:33;9.29;72.35
68378;DHT22;55322;48.146;11.516;2023-03-23T04:35:01;9.34;70.99
68378;DHT22;55322;48.146;11.516;2023-03-23T04:37:27;9.46;70.31
68378;DHT22;55322;48.146;11.516;2023-03-23T04:39:59;9.46;70.05
68378;DHT22;55322;48.146;11.516;2023-03-23T04:42:31;9.48;70.24
68378;DHT22;55322;48.146;11.516;2023-03-23T04:44:58;9.42;71.65
68378;DHT22;55322;48.146;11.516;2023-03-23T04:47:25;9.47;70.72
68378;DHT22;55322;48.146;11.516;2023-03-23T04:49:55;9.47;70.55
68378;DHT22;55322;48.146;11.516;2023-03-23T04:52:20;9.54;69.88
68378;DHT22;55322;48.146;11.516;2023-03-23T04:54:46;9.50;70.90
68378;DHT22;55322;48.146;11.516;2023-03-23T04:57:11;9.46;71.63
68378;DHT22;55322;48.146;11.516;2023-03-23T04:59:37;9.48;71.02
68378;DHT22;55322;48.146;11.516;2023-03-23T05:02:03;9.51;70.50
68378;DHT22;55322;48.146;11.516;2023-03-23T05:04:28;9.54;70.56
68378;DHT22;55322;48.146;11.516;2023-03-23T05:06:53;9.51;70.97
68378;DHT22;55322;48.146;11.516;2023-03-23T05:09:19;9.53;70.96
68378;DHT22;55322;48.146;11.516;2023-03-23T05:11:44;9.54;70.54
68378;DHT22;55322;48.146;11.516;2023-03-23T05:14:10;9.54;71.19
68378;DHT22;55322;48.146;11.516;2023-03-23T05:16:35;9.57;70.57
68378;DHT22;55322;48.146;11.516;2023-03-23T05:19:03;9.57;71.33
68378;DHT22;55322;48.146;11.516;2023-03-23T05:21:30;9.50;71.73
68378;DHT22;55322;48.146;11.516;2023-03-23T05:23:55;9.54;71.20
68378;DHT22;55322;48.146;11.516;2023-03-23T05:26:22;9.54;71.55
68378;DHT22;55322;48.146;11.516;2023-03-23T05:28:50;9.51;71.91
68378;DHT22;55322;48.146;11.516;2023-03-23T05:31:18;9.51;71.84
68378;DHT22;55322;48.146;11.516;2023-03-23T05:33:44;9.51;72.60
68378;DHT22;55322;48.146;11.516;2023-03-23T05:36:10;9.54;71.68
68378;DHT22;55322;48.146;11.516;2023-03-23T05:38:39;9.54;71.75
68378;DHT22;55322;48.146;11.516;2023-03-23T05:41:07;9.63;70.89
68378;DHT22;55322;48.146;11.516;2023-03-23T05:43:33;9.69;70.18
68378;DHT22;55322;48.146;11.516;2023-03-23T05:45:58;9.65;70.52
68378;DHT22;55322;48.146;11.516;2023-03-23T05:48:24;9.75;69.74
68378;DHT22;55322;48.146;11.516;2023-03-23T05:50:49;9.85;69.39
68378;DHT22;55322;48.146;11.516;2023-03-23T05:53:15;9.93;68.84
68378;DHT22;55322;48.146;11.516;2023-03-23T05:55:41;9.94;69.29
68378;DHT22;55322;48.146;11.516;2023-03-23T05:58:06;9.98;68.70
68378;DHT22;55322;48.146;11.516;2023-03-23T06:00:32;10.05;68.82
68378;DHT22;55322;48.146;11.516;2023-03-23T06:02:58;10.12;68.43
68378;DHT22;55322;48.146;11.516;2023-03-23T06:05:23;10.12;68.54
68378;DHT22;55322;48.146;11.516;2023-03-23T06:07:50;10.22;69.33
68378;DHT22;55322;48.146;11.516;2023-03-23T06:10:16;10.17;68.91
68378;DHT22;55322;48.146;11.516;2023-03-23T06:12:42;10.17;68.98
68378;DHT22;55322;48.146;11.516;2023-03-23T06:15:08;10.17;69.45
68378;DHT22;55322;48.146;11.516;2023-03-23T06:17:35;10.22;68.60
68378;DHT22;55322;48.146;11.516;2023-03-23T06:20:01;10.27;69.19
68378;DHT22;55322;48.146;11.516;2023-03-23T06:22:29;10.28;69.07
68378;DHT22;55322;48.146;11.516;2023-03-23T06:24:55;10.28;69.77
68378;DHT22;55322;48.146;11.516;2023-03-23T06:27:23;10.29;70.20
68378;DHT22;55322;48.146;11.516;2023-03-23T06:29:49;10.34;68.97
68378;DHT22;55322;48.146;11.516;2023-03-23T06:32:14;10.39;68.59
68378;DHT22;55322;48.146;11.516;2023-03-23T06:34:40;10.44;69.23
68378;DHT22;55322;48.146;11.516;2023-03-23T06:37:08;10.50;67.78
68378;DHT22;55322;48.146;11.516;2023-03-23T06:39:34;10.58;67.31
68378;DHT22;55322;48.146;11.516;2023-03-23T06:42:00;10.62;67.12
68378;DHT22;55322;48.146;11.516;2023-03-23T06:44:26;10.68;67.12
68378;DHT22;55322;48.146;11.516;2023-03-23T06:46:51;10.70;67.06
68378;DHT22;55322;48.146;11.516;2023-03-23T06:49:16;10.72;66.65
68378;DHT22;55322;48.146;11.516;2023-03-23T06:51:42;10.77;66.50
68378;DHT22;55322;48.146;11.516;2023-03-23T06:54:07;10.82;67.16
68378;DHT22;55322;48.146;11.516;2023-03-23T06:56:33;10.84;67.17
68378;DHT22;55322;48.146;11.516;2023-03-23T06:58:58;10.90;65.57
68378;DHT22;55322;48.146;11.516;2023-03-23T07:01:24;11.02;66.49
68378;DHT22;55322;48.146;11.516;2023-03-23T07:03:49;11.16;65.37
68378;DHT22;55322;48.146;11.516;2023-03-23T07:06:15;11.33;64.38
68378;DHT22;55322;48.146;11.516;2023-03-23T07:08:41;11.51;64.87
68378;DHT22;55322;48.146;11.516;2023-03-23T07:11:06;11.61;65.20
68378;DHT22;55322;48.146;11.516;2023-03-23T07:13:32;11.70;63.93
68378;DHT22;55322;48.146;11.516;2023-03-23T07:15:57;11.84;63.62
68378;DHT22;55322;48.146;11.516;2023-03-23T07:18:23;12.05;62.96
68378;DHT22;55322;48.146;11.516;2023-03-23T07:20:49;12.19;61.59
68378;DHT22;55322;48.146;11.516;2023-03-23T07:23:16;12.39;61.41
68378;DHT22;55322;48.146;11.516;2023-03-23T07:25:42;12.66;62.32
68378;DHT22;55322;48.146;11.516;2023-03-23T07:28:08;12.86;60.27
68378;DHT22;55322;48.146;11.516;2023-03-23T07:30:34;13.08;60.49
68378;DHT22;55322;48.146;11.516;2023-03-23T07:32:59;13.17;59.27
68378;DHT22;55322;48.146;11.516;2023-03-23T07:35:25;13.38;61.01
68378;DHT22;55322;48.146;11.516;2023-03-23T07:37:51;13.57;57.38
68378;DHT22;55322;48.146;11.516;2023-03-23T07:40:18;13.67;57.19
68378;DHT22;55322;48.146;11.516;2023-03-23T07:42:46;13.95;55.64
68378;DHT22;55322;48.146;11.516;2023-03-23T07:45:15;14.15;58.30
68378;DHT22;55322;48.146;11.516;2023-03-23T07:47:40;14.49;56.03
68378;DHT22;55322;48.146;11.516;2023-03-23T07:50:07;14.64;54.06
68378;DHT22;55322;48.146;11.516;2023-03-23T07:52:34;14.46;53.19
68378;DHT22;55322;48.146;11.516;2023-03-23T07:55:01;14.53;53.79
68378;DHT22;55322;48.146;11.516;2023-03-23T07:57:27;14.47;53.47
68378;DHT22;55322;48.146;11.516;2023-03-23T07:59:53;14.30;54.07
68378;DHT22;55322;48.146;11.516;2023-03-23T08:02:18;14.36;54.72
68378;DHT22;55322;48.146;11.516;2023-03-23T08:04:44;14.05;53.86
68378;DHT22;55322;48.146;11.516;2023-03-23T08:07:10;14.04;56.06
68378;DHT22;55322;48.146;11.516;2023-03-23T08:09:37;13.90;55.18
68378;DHT22;55322;48.146;11.516;2023-03-23T08:12:04;13.96;55.42
68378;DHT22;55322;48.146;11.516;2023-03-23T08:14:29;13.96;55.05
68378;DHT22;55322;48.146;11.516;2023-03-23T08:16:56;14.04;55.07
68378;DHT22;55322;48.146;11.516;2023-03-23T08:19:22;14.05;55.08
68378;DHT22;55322;48.146;11.516;2023-03-23T08:21:48;13.94;54.65
68378;DHT22;55322;48.146;11.516;2023-03-23T08:24:14;13.95;55.09
68378;DHT22;55322;48.146;11.516;2023-03-23T08:26:40;13.96;54.63
68378;DHT22;55322;48.146;11.516;2023-03-23T08:29:05;13.98;54.91
68378;DHT22;55322;48.146;11.516;2023-03-23T08:31:31;13.94;56.95
68378;DHT22;55322;48.146;11.516;2023-03-23T08:33:59;13.98;55.19
68378;DHT22;55322;48.146;11.516;2023-03-23T08:36:26;14.01;55.05
68378;DHT22;55322;48.146;11.516;2023-03-23T08:38:51;14.10;56.20
68378;DHT22;55322;48.146;11.516;2023-03-23T08:41:17;14.20;55.92
68378;DHT22;55322;48.146;11.516;2023-03-23T08:43:43;14.29;55.02
68378;DHT22;55322;48.146;11.516;2023-03-23T08:46:09;14.36;53.94
68378;DHT22;55322;48.146;11.516;2023-03-23T08:48:36;14.49;54.94
68378;DHT22;55322;48.146;11.516;2023-03-23T08:51:04;14.66;54.50
68378;DHT22;55322;48.146;11.516;2023-03-23T08:53:30;14.80;55.78
68378;DHT22;55322;48.146;11.516;2023-03-23T08:56:02;14.98;55.25
68378;DHT22;55322;48.146;11.516;2023-03-23T08:58:27;15.14;54.77
68378;DHT22;55322;48.146;11.516;2023-03-23T09:00:53;15.36;55.82
68378;DHT22;55322;48.146;11.516;2023-03-23T09:03:19;15.63;53.40
68378;DHT22;55322;48.146;11.516;2023-03-23T09:05:44;16.14;50.34
68378;DHT22;55322;48.146;11.516;2023-03-23T09:08:11;16.49;51.49
68378;DHT22;55322;48.146;11.516;2023-03-23T09:10:37;16.81;50.48
68378;DHT22;55322;48.146;11.516;2023-03-23T09:13:04;16.96;49.78
68378;DHT22;55322;48.146;11.516;2023-03-23T09:15:29;17.04;48.33
68378;DHT22;55322;48.146;11.516;2023-03-23T09:17:56;16.92;49.50
68378;DHT22;55322;48.146;11.516;2023-03-23T09:20:24;16.84;50.66
68378;DHT22;55322;48.146;11.516;2023-03-23T09:22:51;16.81;51.29
68378;DHT22;55322;48.146;11.516;2023-03-23T09:25:21;16.92;50.42
68378;DHT22;55322;48.146;11.516;2023-03-23T09:27:52;17.08;50.90
68378;DHT22;55322;48.146;11.516;2023-03-23T09:30:22;17.05;50.54
68378;DHT22;55322;48.146;11.516;2023-03-23T09:32:48;17.18;51.89
68378;DHT22;55322;48.146;11.516;2023-03-23T09:35:14;17.24;50.30
68378;DHT22;55322;48.146;11.516;2023-03-23T09:37:41;17.32;50.66
68378;DHT22;55322;48.146;11.516;2023-03-23T09:40:13;17.32;49.60
68378;DHT22;55322;48.146;11.516;2023-03-23T09:45:28;17.48;50.89
68378;DHT22;55322;48.146;11.516;2023-03-23T09:51:04;17.89;49.60
68378;DHT22;55322;48.146;11.516;2023-03-23T09:53:38;18.13;46.87
68378;DHT22;55322;48.146;11.516;2023-03-23T09:56:12;18.20;47.18
68378;DHT22;55322;48.146;11.516;2023-03-23T09:58:46;18.06;46.69
68378;DHT22;55322;48.146;11.516;2023-03-23T10:01:20;18.33;49.06
68378;DHT22;55322;48.146;11.516;2023-03-23T10:03:47;18.45;48.61
68378;DHT22;55322;48.146;11.516;2023-03-23T10:06:15;18.71;44.89
68378;DHT22;55322;48.146;11.516;2023-03-23T10:08:57;18.53;45.96
68378;DHT22;55322;48.146;11.516;2023-03-23T10:19:48;17.62;49.47
68378;DHT22;55322;48.146;11.516;2023-03-23T10:22:18;17.55;49.24
68378;DHT22;55322;48.146;11.516;2023-03-23T10:24:54;17.58;47.07
68378;DHT22;55322;48.146;11.516;2023-03-23T10:30:11;17.42;47.86
68378;DHT22;55322;48.146;11.516;2023-03-23T10:32:47;17.39;44.41
68378;DHT22;55322;48.146;11.516;2023-03-23T10:35:19;17.38;46.49
68378;DHT22;55322;48.146;11.516;2023-03-23T10:37:55;17.34;46.88
68378;DHT22;55322;48.146;11.516;2023-03-23T10:40:25;17.39;47.46
68378;DHT22;55322;48.146;11.516;2023-03-23T10:42:53;17.34;45.80
68378;DHT22;55322;48.146;11.516;2023-03-23T10:45:27;17.26;45.81
68378;DHT22;55322;48.146;11.516;2023-03-23T10:48:14;17.36;45.33
68378;DHT22;55322;48.146;11.516;2023-03-23T10:50:42;17.42;45.99
68378;DHT22;55322;48.146;11.516;2023-03-23T10:53:16;17.45;46.44
68378;DHT22;55322;48.146;11.516;2023-03-23T10:55:43;17.50;45.00
68378;DHT22;55322;48.146;11.516;2023-03-23T10:58:13;17.46;47.92
68378;DHT22;55322;48.146;11.516;2023-03-23T11:00:47;17.58;47.26
68378;DHT22;55322;48.146;11.516;2023-03-23T11:05:43;17.62;45.69
68378;DHT22;55322;48.146;11.516;2023-03-23T11:08:15;17.63;46.85
68378;DHT22;55322;48.146;11.516;2023-03-23T11:10:56;17.56;47.24
68378;DHT22;55322;48.146;11.516;2023-03-23T11:13:26;17.63;46.37
68378;DHT22;55322;48.146;11.516;2023-03-23T11:15:53;17.63;46.41
68378;DHT22;55322;48.146;11.516;2023-03-23T11:18:36;17.56;47.36
68378;DHT22;55322;48.146;11.516;2023-03-23T11:21:03;17.58;46.26
68378;DHT22;55322;48.146;11.516;2023-03-23T11:23:51;17.61;47.89
68378;DHT22;55322;48.146;11.516;2023-03-23T11:29:10;17.94;44.69
68378;DHT22;55322;48.146;11.516;2023-03-23T11:31:41;18.01;46.35
68378;DHT22;55322;48.146;11.516;2023-03-23T11:34:22;17.94;46.11
68378;DHT22;55322;48.146;11.516;2023-03-23T11:36:58;18.06;45.73
68378;DHT22;55322;48.146;11.516;2023-03-23T11:39:27;18.16;46.77
68378;DHT22;55322;48.146;11.516;2023-03-23T11:41:54;18.21;45.16
68378;DHT22;55322;48.146;11.516;2023-03-23T11:44:22;18.14;45.83
68378;DHT22;55322;48.146;11.516;2023-03-23T11:47:20;18.38;44.14
68378;DHT22;55322;48.146;11.516;2023-03-23T11:55:36;18.47;45.78
68378;DHT22;55322;48.146;11.516;2023-03-23T11:58:10;18.53;47.90
68378;DHT22;55322;48.146;11.516;2023-03-23T12:00:41;18.72;45.34
68378;DHT22;55322;48.146;11.516;2023-03-23T12:03:12;18.60;43.31
68378;DHT22;55322;48.146;11.516;2023-03-23T12:05:51;18.67;46.34
68378;DHT22;55322;48.146;11.516;2023-03-23T12:16:41;19.11;43.38
68378;DHT22;55322;48.146;11.516;2023-03-23T12:24:58;19.62;42.63
68378;DHT22;55322;48.146;11.516;2023-03-23T12:32:40;19.48;42.61
68378;DHT22;55322;48.146;11.516;2023-03-23T12:35:14;19.30;42.98
68378;DHT22;55322;48.146;11.516;2023-03-23T12:40:29;19.28;44.21
68378;DHT22;55322;48.146;11.516;2023-03-23T12:48:31;19.29;42.86
68378;DHT22;55322;48.146;11.516;2023-03-23T12:54:09;19.23;42.35
68378;DHT22;55322;48.146;11.516;2023-03-23T17:58:02;13.74;66.30
68378;DHT22;55322;48.146;11.516;2023-03-23T18:00:27;13.69;66.24
68378;DHT22;55322;48.146;11.516;2023-03-23T18:02:53;13.64;66.38
68378;DHT22;55322;48.146;11.516;2023-03-23T18:05:18;13.57;67.31
68378;DHT22;55322;48.146;11.516;2023-03-23T18:07:43;13.61;68.08
68378;DHT22;55322;48.146;11.516;2023-03-23T18:10:08;13.64;66.71
68378;DHT22;55322;48.146;11.516;2023-03-23T18:12:38;13.67;66.26
68378;DHT22;55322;48.146;11.516;2023-03-23T18:15:04;13.71;65.34
68378;DHT22;55322;48.146;11.516;2023-03-23T18:17:30;13.64;66.37
68378;DHT22;55322;48.146;11.516;2023-03-23T18:19:55;13.64;66.66
68378;DHT22;55322;48.146;11.516;2023-03-23T18:22:21;13.62;66.51
68378;DHT22;55322;48.146;11.516;2023-03-23T18:24:46;13.61;66.61
68378;DHT22;55322;48.146;11.516;2023-03-23T18:27:11;13.61;67.21
68378;DHT22;55322;48.146;11.516;2023-03-23T18:29:37;13.59;67.61
68378;DHT22;55322;48.146;11.516;2023-03-23T18:32:02;13.55;67.30
68378;DHT22;55322;48.146;11.516;2023-03-23T18:34:27;13.50;68.16
68378;DHT22;55322;48.146;11.516;2023-03-23T18:36:55;13.53;67.38
68378;DHT22;55322;48.146;11.516;2023-03-23T18:39:20;13.50;68.76
68378;DHT22;55322;48.146;11.516;2023-03-23T18:41:46;13.53;66.75
68378;DHT22;55322;48.146;11.516;2023-03-23T18:44:11;13.62;65.58
68378;DHT22;55322;48.146;11.516;2023-03-23T18:46:36;13.58;67.88
68378;DHT22;55322;48.146;11.516;2023-03-23T18:49:02;13.57;66.35
68378;DHT22;55322;48.146;11.516;2023-03-23T18:51:27;13.57;68.28
68378;DHT22;55322;48.146;11.516;2023-03-23T18:53:55;13.55;67.51
68378;DHT22;55322;48.146;11.516;2023-03-23T18:56:20;13.53;67.29
68378;DHT22;55322;48.146;11.516;2023-03-23T18:58:45;13.48;67.41
68378;DHT22;55322;48.146;11.516;2023-03-23T19:01:14;13.54;65.78
68378;DHT22;55322;48.146;11.516;2023-03-23T19:03:40;13.57;66.23
68378;DHT22;55322;48.146;11.516;2023-03-23T19:06:11;13.57;68.63
68378;DHT22;55322;48.146;11.516;2023-03-23T19:08:38;13.51;67.82
68378;DHT22;55322;48.146;11.516;2023-03-23T19:11:03;13.48;68.12
68378;DHT22;55322;48.146;11.516;2023-03-23T19:13:30;13.43;67.95
68378;DHT22;55322;48.146;11.516;2023-03-23T19:15:58;13.43;67.80
68378;DHT22;55322;48.146;11.516;2023-03-23T19:18:23;13.34;67.84
68378;DHT22;55322;48.146;11.516;2023-03-23T19:20:49;13.34;67.79
68378;DHT22;55322;48.146;11.516;2023-03-23T19:23:16;13.28;68.01
68378;DHT22;55322;48.146;11.516;2023-03-23T19:25:41;13.27;67.97
68378;DHT22;55322;48.146;11.516;2023-03-23T19:28:07;13.23;69.15
68378;DHT22;55322;48.146;11.516;2023-03-23T19:30:33;13.21;69.20
68378;DHT22;55322;48.146;11.516;2023-03-23T19:32:59;13.18;69.28
68378;DHT22;55322;48.146;11.516;2023-03-23T19:35:24;13.20;68.95
68378;DHT22;55322;48.146;11.516;2023-03-23T19:37:50;13.14;69.00
68378;DHT22;55322;48.146;11.516;2023-03-23T19:40:15;13.10;69.37
68378;DHT22;55322;48.146;11.516;2023-03-23T19:42:41;13.15;69.45
68378;DHT22;55322;48.146;11.516;2023-03-23T19:45:07;13.13;68.24
68378;DHT22;55322;48.146;11.516;2023-03-23T19:47:33;13.20;68.33
68378;DHT22;55322;48.146;11.516;2023-03-23T19:49:58;13.25;68.04
68378;DHT22;55322;48.146;11.516;2023-03-23T19:52:25;13.28;67.05
68378;DHT22;55322;48.146;11.516;2023-03-23T19:54:52;13.24;67.91
68378;DHT22;55322;48.146;11.516;2023-03-23T19:57:18;13.28;66.60
68378;DHT22;55322;48.146;11.516;2023-03-23T19:59:43;13.30;66.14
68378;DHT22;55322;48.146;11.516;2023-03-23T20:02:12;13.33;65.78
68378;DHT22;55322;48.146;11.516;2023-03-23T20:04:37;13.31;66.40
68378;DHT22;55322;48.146;11.516;2023-03-23T20:07:03;13.27;67.13
68378;DHT22;55322;48.146;11.516;2023-03-23T20:09:30;13.20;68.07
68378;DHT22;55322;48.146;11.516;2023-03-23T20:11:55;13.18;66.71
68378;DHT22;55322;48.146;11.516;2023-03-23T20:14:21;13.08;69.00
68378;DHT22;55322;48.146;11.516;2023-03-23T20:16:46;13.04;69.18
68378;DHT22;55322;48.146;11.516;2023-03-23T20:19:11;13.04;67.32
68378;DHT22;55322;48.146;11.516;2023-03-23T20:21:37;13.02;68.00
68378;DHT22;55322;48.146;11.516;2023-03-23T20:24:02;13.02;68.07
68378;DHT22;55322;48.146;11.516;2023-03-23T20:26:31;12.96;69.19
68378;DHT22;55322;48.146;11.516;2023-03-23T20:28:57;13.03;67.83
68378;DHT22;55322;48.146;11.516;2023-03-23T20:31:25;13.04;67.28
68378;DHT22;55322;48.146;11.516;2023-03-23T20:33:55;13.06;67.54
68378;DHT22;55322;48.146;11.516;2023-03-23T20:36:26;13.04;67.89
68378;DHT22;55322;48.146;11.516;2023-03-23T20:38:54;13.04;68.06
68378;DHT22;55322;48.146;11.516;2023-03-23T20:41:21;12.99;69.05
68378;DHT22;55322;48.146;11.516;2023-03-23T20:43:48;12.99;67.82
68378;DHT22;55322;48.146;11.516;2023-03-23T20:46:13;13.00;67.15
68378;DHT22;55322;48.146;11.516;2023-03-23T20:48:39;12.97;68.67
68378;DHT22;55322;48.146;11.516;2023-03-23T20:51:06;12.92;69.04
68378;DHT22;55322;48.146;11.516;2023-03-23T20:53:32;12.87;68.67
68378;DHT22;55322;48.146;11.516;2023-03-23T20:56:00;12.82;69.54
68378;DHT22;55322;48.146;11.516;2023-03-23T20:58:27;12.84;68.84
68378;DHT22;55322;48.146;11.516;2023-03-23T21:00:54;12.80;70.42
68378;DHT22;55322;48.146;11.516;2023-03-23T21:03:38;12.84;68.49
68378;DHT22;55322;48.146;11.516;2023-03-23T21:06:04;12.90;67.76
68378;DHT22;55322;48.146;11.516;2023-03-23T21:08:34;12.93;67.97
68378;DHT22;55322;48.146;11.516;2023-03-23T21:11:01;12.96;67.75
68378;DHT22;55322;48.146;11.516;2023-03-23T21:13:26;13.00;67.40
68378;DHT22;55322;48.146;11.516;2023-03-23T21:15:52;12.99;67.22
68378;DHT22;55322;48.146;11.516;2023-03-23T21:18:18;13.03;67.13
68378;DHT22;55322;48.146;11.516;2023-03-23T21:20:43;12.99;68.68
68378;DHT22;55322;48.146;11.516;2023-03-23T21:23:09;13.06;67.35
68378;DHT22;55322;48.146;11.516;2023-03-23T21:25:35;13.03;67.35
68378;DHT22;55322;48.146;11.516;2023-03-23T21:28:03;13.02;67.81
68378;DHT22;55322;48.146;11.516;2023-03-23T21:30:29;12.99;67.91
68378;DHT22;55322;48.146;11.516;2023-03-23T21:32:54;12.96;68.55
68378;DHT22;55322;48.146;11.516;2023-03-23T21:35:20;12.93;70.05
68378;DHT22;55322;48.146;11.516;2023-03-23T21:37:46;12.79;71.75
68378;DHT22;55322;48.146;11.516;2023-03-23T21:40:14;12.76;71.21
68378;DHT22;55322;48.146;11.516;2023-03-23T21:42:41;12.75;70.94
68378;DHT22;55322;48.146;11.516;2023-03-23T21:45:11;12.69;71.78
68378;DHT22;55322;48.146;11.516;2023-03-23T21:47:38;12.69;71.47
68378;DHT22;55322;48.146;11.516;2023-03-23T21:50:06;12.66;71.04
68378;DHT22;55322;48.146;11.516;2023-03-23T21:52:32;12.67;71.11
68378;DHT22;55322;48.146;11.516;2023-03-23T21:54:59;12.66;70.36
68378;DHT22;55322;48.146;11.516;2023-03-23T21:57:26;12.67;70.41